MMZC/ZCL METAR and TAF weather

Enter ICAO airport designator
Station Type Date Time Source
MMZC METAR 2021/01/22 01:56 UTC NOAA

MMZC 220156Z 04006KT 10SM BKN200 15/06 A3026 RMK 8/001


Station Type Date Time Source
MMZC Decoded METAR 2021/01/22 01:56 UTC NOAA

Zacatecas Airport, Mexico (MMZC) 22-54N 102-41W
Jan 21, 2021 - 08:56 PM EST / 2021.01.22 0156 UTC
Wind: from the NE (040 degrees) at 7 MPH (6 KT):0
Visibility: 10 mile(s):0
Sky conditions: mostly cloudy
Temperature: 59 F (15 C)
Dew Point: 42 F (6 C)
Relative Humidity: 54%
Pressure (altimeter): 30.26 in. Hg (1024 hPa)
ob: MMZC 220156Z 04006KT 10SM BKN200 15/06 A3026 RMK 8/001
cycle: 2

Station Type Date Time Source
MMZC TAF 2021/01/22 06:12 UTC NOAA

TAF MMZC 220310Z 2206/2312 22008KT P6SM BKN250 TX23/2221Z TN08/2212Z
FM221600 23015KT P6SM BKN250
FM230200 23010KT P6SM SCT250

Example: see airport list